sensor_id;sensor_type;location;lat;lon;timestamp;temperature;humidity
20384;DHT22;46458;50.966;7.002;2023-05-20T00:01:48;15.30;99.90
20384;DHT22;46458;50.966;7.002;2023-05-20T00:04:17;15.30;99.90
20384;DHT22;46458;50.966;7.002;2023-05-20T00:06:46;15.20;99.90
20384;DHT22;46458;50.966;7.002;2023-05-20T00:09:15;15.10;99.90
20384;DHT22;46458;50.966;7.002;2023-05-20T00:11:45;15.10;99.90
20384;DHT22;46458;50.966;7.002;2023-05-20T00:14:14;15.10;99.90
20384;DHT22;46458;50.966;7.002;2023-05-20T00:16:42;15.10;99.90
20384;DHT22;46458;50.966;7.002;2023-05-20T00:19:14;15.10;99.90
20384;DHT22;46458;50.966;7.002;2023-05-20T00:21:43;15.10;99.90
20384;DHT22;46458;50.966;7.002;2023-05-20T00:24:11;15.10;99.90
20384;DHT22;46458;50.966;7.002;2023-05-20T00:26:40;15.10;99.90
20384;DHT22;46458;50.966;7.002;2023-05-20T00:29:09;15.00;99.90
20384;DHT22;46458;50.966;7.002;2023-05-20T00:31:38;15.10;99.90
20384;DHT22;46458;50.966;7.002;2023-05-20T00:34:07;15.00;99.90
20384;DHT22;46458;50.966;7.002;2023-05-20T00:36:38;15.00;99.90
20384;DHT22;46458;50.966;7.002;2023-05-20T00:39:10;15.00;99.90
20384;DHT22;46458;50.966;7.002;2023-05-20T00:41:40;14.90;99.90
20384;DHT22;46458;50.966;7.002;2023-05-20T00:44:09;15.00;99.90
20384;DHT22;46458;50.966;7.002;2023-05-20T00:46:38;15.00;99.90
20384;DHT22;46458;50.966;7.002;2023-05-20T00:49:07;15.00;99.90
20384;DHT22;46458;50.966;7.002;2023-05-20T00:51:39;15.00;99.90
20384;DHT22;46458;50.966;7.002;2023-05-20T00:54:08;15.00;99.90
20384;DHT22;46458;50.966;7.002;2023-05-20T00:56:41;14.90;99.90
20384;DHT22;46458;50.966;7.002;2023-05-20T00:59:11;14.90;99.90
20384;DHT22;46458;50.966;7.002;2023-05-20T01:01:41;15.00;99.90
20384;DHT22;46458;50.966;7.002;2023-05-20T01:04:10;14.90;99.90
20384;DHT22;46458;50.966;7.002;2023-05-20T01:06:41;14.80;99.90
20384;DHT22;46458;50.966;7.002;2023-05-20T01:09:11;14.60;99.90
20384;DHT22;46458;50.966;7.002;2023-05-20T01:11:45;14.50;99.90
20384;DHT22;46458;50.966;7.002;2023-05-20T01:14:18;14.50;99.90
20384;DHT22;46458;50.966;7.002;2023-05-20T01:16:49;14.50;99.90
20384;DHT22;46458;50.966;7.002;2023-05-20T01:19:34;14.50;99.90
20384;DHT22;46458;50.966;7.002;2023-05-20T01:22:11;14.40;99.90
20384;DHT22;46458;50.966;7.002;2023-05-20T01:24:48;14.30;99.90
20384;DHT22;46458;50.966;7.002;2023-05-20T01:27:19;14.40;99.90
20384;DHT22;46458;50.966;7.002;2023-05-20T01:29:49;14.50;99.90
20384;DHT22;46458;50.966;7.002;2023-05-20T01:32:22;14.50;99.90
20384;DHT22;46458;50.966;7.002;2023-05-20T01:34:51;14.40;99.90
20384;DHT22;46458;50.966;7.002;2023-05-20T01:37:24;14.30;99.90
20384;DHT22;46458;50.966;7.002;2023-05-20T01:40:03;14.30;99.90
20384;DHT22;46458;50.966;7.002;2023-05-20T01:42:35;14.30;99.90
20384;DHT22;46458;50.966;7.002;2023-05-20T01:45:06;14.30;99.90
20384;DHT22;46458;50.966;7.002;2023-05-20T01:47:39;14.30;99.90
20384;DHT22;46458;50.966;7.002;2023-05-20T01:50:08;14.00;99.90
20384;DHT22;46458;50.966;7.002;2023-05-20T01:52:40;14.30;99.90
20384;DHT22;46458;50.966;7.002;2023-05-20T01:55:12;14.20;99.90
20384;DHT22;46458;50.966;7.002;2023-05-20T01:57:44;14.30;99.90
20384;DHT22;46458;50.966;7.002;2023-05-20T02:00:13;14.20;99.90
20384;DHT22;46458;50.966;7.002;2023-05-20T02:02:44;14.10;99.90
20384;DHT22;46458;50.966;7.002;2023-05-20T02:05:13;14.10;99.90
20384;DHT22;46458;50.966;7.002;2023-05-20T02:07:42;14.10;99.90
20384;DHT22;46458;50.966;7.002;2023-05-20T02:10:15;14.10;99.90
20384;DHT22;46458;50.966;7.002;2023-05-20T02:12:45;14.10;99.90
20384;DHT22;46458;50.966;7.002;2023-05-20T02:15:15;14.00;99.90
20384;DHT22;46458;50.966;7.002;2023-05-20T02:17:45;14.00;99.90
20384;DHT22;46458;50.966;7.002;2023-05-20T02:20:14;13.90;99.90
20384;DHT22;46458;50.966;7.002;2023-05-20T02:22:43;13.80;99.90
20384;DHT22;46458;50.966;7.002;2023-05-20T02:25:15;13.70;99.90
20384;DHT22;46458;50.966;7.002;2023-05-20T02:27:45;13.70;99.90
20384;DHT22;46458;50.966;7.002;2023-05-20T02:30:14;13.60;99.90
20384;DHT22;46458;50.966;7.002;2023-05-20T02:32:43;13.50;99.90
20384;DHT22;46458;50.966;7.002;2023-05-20T02:35:14;13.50;99.90
20384;DHT22;46458;50.966;7.002;2023-05-20T02:37:47;13.50;99.90
20384;DHT22;46458;50.966;7.002;2023-05-20T02:40:19;13.50;99.90
20384;DHT22;46458;50.966;7.002;2023-05-20T02:42:48;13.60;99.90
20384;DHT22;46458;50.966;7.002;2023-05-20T02:45:16;13.50;99.90
20384;DHT22;46458;50.966;7.002;2023-05-20T02:47:45;13.40;99.90
20384;DHT22;46458;50.966;7.002;2023-05-20T02:50:14;13.40;99.90
20384;DHT22;46458;50.966;7.002;2023-05-20T02:52:46;13.30;99.90
20384;DHT22;46458;50.966;7.002;2023-05-20T02:55:22;13.30;99.90
20384;DHT22;46458;50.966;7.002;2023-05-20T02:57:57;13.30;99.90
20384;DHT22;46458;50.966;7.002;2023-05-20T03:00:28;13.30;99.90
20384;DHT22;46458;50.966;7.002;2023-05-20T03:03:00;13.20;99.90
20384;DHT22;46458;50.966;7.002;2023-05-20T03:05:29;13.20;99.90
20384;DHT22;46458;50.966;7.002;2023-05-20T03:08:03;13.30;99.90
20384;DHT22;46458;50.966;7.002;2023-05-20T03:10:34;13.20;99.90
20384;DHT22;46458;50.966;7.002;2023-05-20T03:13:08;13.20;99.90
20384;DHT22;46458;50.966;7.002;2023-05-20T03:15:40;13.20;99.90
20384;DHT22;46458;50.966;7.002;2023-05-20T03:18:10;13.20;99.90
20384;DHT22;46458;50.966;7.002;2023-05-20T03:20:41;13.10;99.90
20384;DHT22;46458;50.966;7.002;2023-05-20T03:23:11;13.10;99.90
20384;DHT22;46458;50.966;7.002;2023-05-20T03:25:43;13.10;99.90
20384;DHT22;46458;50.966;7.002;2023-05-20T03:28:12;13.10;99.90
20384;DHT22;46458;50.966;7.002;2023-05-20T03:30:41;13.10;99.90
20384;DHT22;46458;50.966;7.002;2023-05-20T03:33:10;13.10;99.90
20384;DHT22;46458;50.966;7.002;2023-05-20T03:35:40;13.10;99.90
20384;DHT22;46458;50.966;7.002;2023-05-20T03:38:09;13.10;99.90
20384;DHT22;46458;50.966;7.002;2023-05-20T03:40:39;13.10;99.90
20384;DHT22;46458;50.966;7.002;2023-05-20T03:43:12;13.10;99.90
20384;DHT22;46458;50.966;7.002;2023-05-20T03:45:44;13.10;99.90
20384;DHT22;46458;50.966;7.002;2023-05-20T03:48:13;13.10;99.90
20384;DHT22;46458;50.966;7.002;2023-05-20T03:50:42;13.10;99.90
20384;DHT22;46458;50.966;7.002;2023-05-20T03:53:11;13.00;99.90
20384;DHT22;46458;50.966;7.002;2023-05-20T03:55:40;13.00;99.90
20384;DHT22;46458;50.966;7.002;2023-05-20T03:58:14;13.00;99.90
20384;DHT22;46458;50.966;7.002;2023-05-20T04:00:43;13.00;99.90
20384;DHT22;46458;50.966;7.002;2023-05-20T04:03:12;13.10;99.90
20384;DHT22;46458;50.966;7.002;2023-05-20T04:05:41;13.00;99.90
20384;DHT22;46458;50.966;7.002;2023-05-20T04:08:16;13.10;99.90
20384;DHT22;46458;50.966;7.002;2023-05-20T04:10:46;13.10;99.90
20384;DHT22;46458;50.966;7.002;2023-05-20T04:13:18;13.10;99.90
20384;DHT22;46458;50.966;7.002;2023-05-20T04:15:47;13.20;99.90
20384;DHT22;46458;50.966;7.002;2023-05-20T04:18:17;13.10;99.90
20384;DHT22;46458;50.966;7.002;2023-05-20T04:20:47;13.10;99.90
20384;DHT22;46458;50.966;7.002;2023-05-20T04:23:16;13.20;99.90
20384;DHT22;46458;50.966;7.002;2023-05-20T04:25:45;13.20;99.90
20384;DHT22;46458;50.966;7.002;2023-05-20T04:28:14;13.20;99.90
20384;DHT22;46458;50.966;7.002;2023-05-20T04:30:45;13.30;99.90
20384;DHT22;46458;50.966;7.002;2023-05-20T04:33:15;13.30;99.90
20384;DHT22;46458;50.966;7.002;2023-05-20T04:35:44;13.40;99.90
20384;DHT22;46458;50.966;7.002;2023-05-20T04:38:13;13.40;99.90
20384;DHT22;46458;50.966;7.002;2023-05-20T04:40:42;13.40;99.90
20384;DHT22;46458;50.966;7.002;2023-05-20T04:43:14;13.40;99.90
20384;DHT22;46458;50.966;7.002;2023-05-20T04:45:52;13.40;99.90
20384;DHT22;46458;50.966;7.002;2023-05-20T04:48:21;13.50;99.90
20384;DHT22;46458;50.966;7.002;2023-05-20T04:50:52;13.50;99.90
20384;DHT22;46458;50.966;7.002;2023-05-20T04:53:21;13.50;99.90
20384;DHT22;46458;50.966;7.002;2023-05-20T04:55:53;13.50;99.90
20384;DHT22;46458;50.966;7.002;2023-05-20T04:58:24;13.60;99.90
20384;DHT22;46458;50.966;7.002;2023-05-20T05:00:59;13.60;99.90
20384;DHT22;46458;50.966;7.002;2023-05-20T05:03:28;13.70;99.90
20384;DHT22;46458;50.966;7.002;2023-05-20T05:05:57;13.70;99.90
20384;DHT22;46458;50.966;7.002;2023-05-20T05:08:26;13.90;99.90
20384;DHT22;46458;50.966;7.002;2023-05-20T05:10:54;13.90;99.90
20384;DHT22;46458;50.966;7.002;2023-05-20T05:13:23;13.90;99.90
20384;DHT22;46458;50.966;7.002;2023-05-20T05:16:02;13.90;99.90
20384;DHT22;46458;50.966;7.002;2023-05-20T05:18:32;13.90;99.90
20384;DHT22;46458;50.966;7.002;2023-05-20T05:21:01;13.90;99.90
20384;DHT22;46458;50.966;7.002;2023-05-20T05:23:31;14.00;99.90
20384;DHT22;46458;50.966;7.002;2023-05-20T05:26:00;14.10;99.90
20384;DHT22;46458;50.966;7.002;2023-05-20T05:28:32;14.20;99.90
20384;DHT22;46458;50.966;7.002;2023-05-20T05:31:08;14.30;99.90
20384;DHT22;46458;50.966;7.002;2023-05-20T05:33:37;14.30;99.90
20384;DHT22;46458;50.966;7.002;2023-05-20T05:36:06;14.40;99.90
20384;DHT22;46458;50.966;7.002;2023-05-20T05:38:35;14.40;99.90
20384;DHT22;46458;50.966;7.002;2023-05-20T05:41:04;14.50;99.90
20384;DHT22;46458;50.966;7.002;2023-05-20T05:43:34;14.60;99.90
20384;DHT22;46458;50.966;7.002;2023-05-20T05:46:09;14.60;99.90
20384;DHT22;46458;50.966;7.002;2023-05-20T05:48:38;14.70;99.90
20384;DHT22;46458;50.966;7.002;2023-05-20T05:51:10;14.70;99.90
20384;DHT22;46458;50.966;7.002;2023-05-20T05:53:39;14.80;99.90
20384;DHT22;46458;50.966;7.002;2023-05-20T05:56:08;14.90;99.90
20384;DHT22;46458;50.966;7.002;2023-05-20T05:58:37;14.90;99.90
20384;DHT22;46458;50.966;7.002;2023-05-20T06:01:09;14.90;99.90
20384;DHT22;46458;50.966;7.002;2023-05-20T06:03:38;15.00;99.90
20384;DHT22;46458;50.966;7.002;2023-05-20T06:06:07;15.00;99.90
20384;DHT22;46458;50.966;7.002;2023-05-20T06:08:36;15.00;99.90
20384;DHT22;46458;50.966;7.002;2023-05-20T06:11:06;15.00;99.90
20384;DHT22;46458;50.966;7.002;2023-05-20T06:13:35;15.10;99.90
20384;DHT22;46458;50.966;7.002;2023-05-20T06:16:04;15.20;99.90
20384;DHT22;46458;50.966;7.002;2023-05-20T06:18:37;15.30;99.90
20384;DHT22;46458;50.966;7.002;2023-05-20T06:21:06;15.30;99.90
20384;DHT22;46458;50.966;7.002;2023-05-20T06:23:36;15.30;99.90
20384;DHT22;46458;50.966;7.002;2023-05-20T06:26:08;15.40;99.90
20384;DHT22;46458;50.966;7.002;2023-05-20T06:28:38;15.40;99.90
20384;DHT22;46458;50.966;7.002;2023-05-20T06:31:07;15.50;99.90
20384;DHT22;46458;50.966;7.002;2023-05-20T06:33:40;15.60;99.90
20384;DHT22;46458;50.966;7.002;2023-05-20T06:36:11;15.70;99.90
20384;DHT22;46458;50.966;7.002;2023-05-20T06:38:40;15.60;99.90
20384;DHT22;46458;50.966;7.002;2023-05-20T06:41:11;15.70;99.90
20384;DHT22;46458;50.966;7.002;2023-05-20T06:43:40;15.70;99.90
20384;DHT22;46458;50.966;7.002;2023-05-20T06:46:37;15.80;99.90
20384;DHT22;46458;50.966;7.002;2023-05-20T06:49:16;15.90;99.90
20384;DHT22;46458;50.966;7.002;2023-05-20T06:51:45;15.90;99.90
20384;DHT22;46458;50.966;7.002;2023-05-20T06:54:14;16.00;99.90
20384;DHT22;46458;50.966;7.002;2023-05-20T06:56:43;15.90;99.90
20384;DHT22;46458;50.966;7.002;2023-05-20T06:59:13;16.00;99.90
20384;DHT22;46458;50.966;7.002;2023-05-20T07:01:43;16.10;99.90
20384;DHT22;46458;50.966;7.002;2023-05-20T07:04:12;16.10;99.90
20384;DHT22;46458;50.966;7.002;2023-05-20T07:06:44;16.20;99.90
20384;DHT22;46458;50.966;7.002;2023-05-20T07:09:13;16.30;99.90
20384;DHT22;46458;50.966;7.002;2023-05-20T07:11:47;16.30;99.90
20384;DHT22;46458;50.966;7.002;2023-05-20T07:14:16;16.40;99.90
20384;DHT22;46458;50.966;7.002;2023-05-20T07:16:46;16.40;99.90
20384;DHT22;46458;50.966;7.002;2023-05-20T07:19:18;16.50;99.90
20384;DHT22;46458;50.966;7.002;2023-05-20T07:21:49;16.60;99.90
20384;DHT22;46458;50.966;7.002;2023-05-20T07:24:34;16.60;99.90
20384;DHT22;46458;50.966;7.002;2023-05-20T07:27:04;16.70;99.90
20384;DHT22;46458;50.966;7.002;2023-05-20T07:29:34;16.70;99.90
20384;DHT22;46458;50.966;7.002;2023-05-20T07:32:07;16.80;99.90
20384;DHT22;46458;50.966;7.002;2023-05-20T07:34:37;16.80;99.90
20384;DHT22;46458;50.966;7.002;2023-05-20T07:37:08;16.90;99.90
20384;DHT22;46458;50.966;7.002;2023-05-20T07:39:38;17.00;99.90
20384;DHT22;46458;50.966;7.002;2023-05-20T07:42:06;17.10;99.90
20384;DHT22;46458;50.966;7.002;2023-05-20T07:44:38;17.10;99.90
20384;DHT22;46458;50.966;7.002;2023-05-20T07:47:07;17.20;99.90
20384;DHT22;46458;50.966;7.002;2023-05-20T07:49:36;17.20;99.90
20384;DHT22;46458;50.966;7.002;2023-05-20T07:52:09;17.30;99.90
20384;DHT22;46458;50.966;7.002;2023-05-20T07:54:37;17.40;99.90
20384;DHT22;46458;50.966;7.002;2023-05-20T07:57:07;17.50;99.90
20384;DHT22;46458;50.966;7.002;2023-05-20T07:59:38;17.50;99.90
20384;DHT22;46458;50.966;7.002;2023-05-20T08:02:07;17.50;99.90
20384;DHT22;46458;50.966;7.002;2023-05-20T08:04:36;17.50;99.90
20384;DHT22;46458;50.966;7.002;2023-05-20T08:07:10;17.50;99.90
20384;DHT22;46458;50.966;7.002;2023-05-20T08:09:51;17.50;99.90
20384;DHT22;46458;50.966;7.002;2023-05-20T08:12:22;17.50;99.90
20384;DHT22;46458;50.966;7.002;2023-05-20T08:14:54;17.60;99.90
20384;DHT22;46458;50.966;7.002;2023-05-20T08:17:23;17.60;99.90
20384;DHT22;46458;50.966;7.002;2023-05-20T08:19:53;17.70;99.90
20384;DHT22;46458;50.966;7.002;2023-05-20T08:22:24;17.70;99.90
20384;DHT22;46458;50.966;7.002;2023-05-20T08:24:53;17.80;99.90
20384;DHT22;46458;50.966;7.002;2023-05-20T08:27:22;17.70;99.90
20384;DHT22;46458;50.966;7.002;2023-05-20T08:29:51;17.80;99.90
20384;DHT22;46458;50.966;7.002;2023-05-20T08:32:20;17.80;99.90
20384;DHT22;46458;50.966;7.002;2023-05-20T08:34:52;17.90;99.90
20384;DHT22;46458;50.966;7.002;2023-05-20T08:37:25;17.90;99.90
20384;DHT22;46458;50.966;7.002;2023-05-20T08:39:54;17.90;99.90
20384;DHT22;46458;50.966;7.002;2023-05-20T08:42:24;18.00;99.90
20384;DHT22;46458;50.966;7.002;2023-05-20T08:44:55;18.10;99.90
20384;DHT22;46458;50.966;7.002;2023-05-20T08:47:26;18.10;99.90
20384;DHT22;46458;50.966;7.002;2023-05-20T08:49:55;18.20;99.90
20384;DHT22;46458;50.966;7.002;2023-05-20T08:52:30;18.30;99.90
20384;DHT22;46458;50.966;7.002;2023-05-20T08:55:02;18.40;99.90
20384;DHT22;46458;50.966;7.002;2023-05-20T08:57:32;18.40;99.90
20384;DHT22;46458;50.966;7.002;2023-05-20T09:00:02;18.40;99.90
20384;DHT22;46458;50.966;7.002;2023-05-20T09:02:38;18.50;99.90
20384;DHT22;46458;50.966;7.002;2023-05-20T09:05:09;18.60;99.90
20384;DHT22;46458;50.966;7.002;2023-05-20T09:07:44;18.60;99.90
20384;DHT22;46458;50.966;7.002;2023-05-20T09:10:12;18.70;99.90
20384;DHT22;46458;50.966;7.002;2023-05-20T09:12:44;18.80;99.90
20384;DHT22;46458;50.966;7.002;2023-05-20T09:15:13;18.80;99.90
20384;DHT22;46458;50.966;7.002;2023-05-20T09:17:42;19.00;99.90
20384;DHT22;46458;50.966;7.002;2023-05-20T09:20:11;19.00;99.90
20384;DHT22;46458;50.966;7.002;2023-05-20T09:22:43;19.10;99.90
20384;DHT22;46458;50.966;7.002;2023-05-20T09:25:12;19.20;99.90
20384;DHT22;46458;50.966;7.002;2023-05-20T09:27:41;19.20;99.90
20384;DHT22;46458;50.966;7.002;2023-05-20T09:30:11;19.20;99.90
20384;DHT22;46458;50.966;7.002;2023-05-20T09:32:40;19.20;99.90
20384;DHT22;46458;50.966;7.002;2023-05-20T09:35:13;19.20;99.90
20384;DHT22;46458;50.966;7.002;2023-05-20T09:37:46;19.30;99.90
20384;DHT22;46458;50.966;7.002;2023-05-20T09:40:16;19.40;99.90
20384;DHT22;46458;50.966;7.002;2023-05-20T09:42:52;19.50;99.90
20384;DHT22;46458;50.966;7.002;2023-05-20T09:45:21;19.60;99.90
20384;DHT22;46458;50.966;7.002;2023-05-20T09:47:51;19.70;99.90
20384;DHT22;46458;50.966;7.002;2023-05-20T09:50:22;19.80;99.90
20384;DHT22;46458;50.966;7.002;2023-05-20T09:52:55;19.90;99.90
20384;DHT22;46458;50.966;7.002;2023-05-20T09:55:27;19.90;99.90
20384;DHT22;46458;50.966;7.002;2023-05-20T09:57:58;20.00;99.90
20384;DHT22;46458;50.966;7.002;2023-05-20T10:00:29;20.10;99.90
20384;DHT22;46458;50.966;7.002;2023-05-20T10:02:59;20.10;99.90
20384;DHT22;46458;50.966;7.002;2023-05-20T10:05:34;20.10;99.90
20384;DHT22;46458;50.966;7.002;2023-05-20T10:08:29;20.10;99.90
20384;DHT22;46458;50.966;7.002;2023-05-20T10:11:09;20.10;99.90
20384;DHT22;46458;50.966;7.002;2023-05-20T10:13:51;20.20;99.90
20384;DHT22;46458;50.966;7.002;2023-05-20T10:16:33;20.20;99.90
20384;DHT22;46458;50.966;7.002;2023-05-20T10:19:14;20.20;99.90
20384;DHT22;46458;50.966;7.002;2023-05-20T10:21:56;20.20;99.90
20384;DHT22;46458;50.966;7.002;2023-05-20T10:24:38;20.10;99.90
20384;DHT22;46458;50.966;7.002;2023-05-20T10:27:08;20.10;99.90
20384;DHT22;46458;50.966;7.002;2023-05-20T10:29:43;20.00;99.90
20384;DHT22;46458;50.966;7.002;2023-05-20T10:32:25;19.90;99.90
20384;DHT22;46458;50.966;7.002;2023-05-20T10:34:58;19.90;99.90
20384;DHT22;46458;50.966;7.002;2023-05-20T10:37:33;19.80;99.90
20384;DHT22;46458;50.966;7.002;2023-05-20T10:40:06;19.80;99.90
20384;DHT22;46458;50.966;7.002;2023-05-20T10:42:37;19.70;99.90
20384;DHT22;46458;50.966;7.002;2023-05-20T10:45:07;19.80;99.90
20384;DHT22;46458;50.966;7.002;2023-05-20T10:47:40;19.70;99.90
20384;DHT22;46458;50.966;7.002;2023-05-20T10:50:24;19.80;99.90
20384;DHT22;46458;50.966;7.002;2023-05-20T10:53:02;19.80;99.90
20384;DHT22;46458;50.966;7.002;2023-05-20T10:55:38;19.80;99.90
20384;DHT22;46458;50.966;7.002;2023-05-20T10:58:09;19.80;99.90
20384;DHT22;46458;50.966;7.002;2023-05-20T11:00:38;19.70;99.90
20384;DHT22;46458;50.966;7.002;2023-05-20T11:03:07;19.70;99.90
20384;DHT22;46458;50.966;7.002;2023-05-20T11:05:39;19.70;99.90
20384;DHT22;46458;50.966;7.002;2023-05-20T11:08:10;19.70;99.90
20384;DHT22;46458;50.966;7.002;2023-05-20T11:10:41;19.70;99.90
20384;DHT22;46458;50.966;7.002;2023-05-20T11:13:12;19.70;99.90
20384;DHT22;46458;50.966;7.002;2023-05-20T11:15:41;19.90;99.90
20384;DHT22;46458;50.966;7.002;2023-05-20T11:18:10;19.90;99.90
20384;DHT22;46458;50.966;7.002;2023-05-20T11:20:44;19.90;99.90
20384;DHT22;46458;50.966;7.002;2023-05-20T11:23:17;19.90;99.90
20384;DHT22;46458;50.966;7.002;2023-05-20T11:25:52;19.90;99.90
20384;DHT22;46458;50.966;7.002;2023-05-20T11:28:23;20.10;99.90
20384;DHT22;46458;50.966;7.002;2023-05-20T11:30:53;20.20;99.90
20384;DHT22;46458;50.966;7.002;2023-05-20T11:33:25;20.20;99.90
20384;DHT22;46458;50.966;7.002;2023-05-20T11:35:56;20.30;99.90
20384;DHT22;46458;50.966;7.002;2023-05-20T11:38:27;20.40;99.90
20384;DHT22;46458;50.966;7.002;2023-05-20T11:41:00;20.40;99.90
20384;DHT22;46458;50.966;7.002;2023-05-20T11:43:28;20.50;99.90
20384;DHT22;46458;50.966;7.002;2023-05-20T11:46:01;20.30;99.90
20384;DHT22;46458;50.966;7.002;2023-05-20T11:48:29;20.20;99.90
20384;DHT22;46458;50.966;7.002;2023-05-20T11:50:58;20.20;99.90
20384;DHT22;46458;50.966;7.002;2023-05-20T11:53:28;20.10;99.90
20384;DHT22;46458;50.966;7.002;2023-05-20T11:56:03;20.10;99.90
20384;DHT22;46458;50.966;7.002;2023-05-20T11:58:32;19.90;99.90
20384;DHT22;46458;50.966;7.002;2023-05-20T12:01:01;19.90;99.90
20384;DHT22;46458;50.966;7.002;2023-05-20T12:03:30;19.80;99.90
20384;DHT22;46458;50.966;7.002;2023-05-20T12:06:00;19.80;99.90
20384;DHT22;46458;50.966;7.002;2023-05-20T12:08:29;19.80;99.90
20384;DHT22;46458;50.966;7.002;2023-05-20T12:10:57;19.80;99.90
20384;DHT22;46458;50.966;7.002;2023-05-20T12:13:29;19.80;99.90
20384;DHT22;46458;50.966;7.002;2023-05-20T12:15:58;19.90;99.90
20384;DHT22;46458;50.966;7.002;2023-05-20T12:18:26;19.90;99.90
20384;DHT22;46458;50.966;7.002;2023-05-20T12:20:55;19.90;99.90
20384;DHT22;46458;50.966;7.002;2023-05-20T12:23:24;19.90;99.90
20384;DHT22;46458;50.966;7.002;2023-05-20T12:25:55;19.90;99.90
20384;DHT22;46458;50.966;7.002;2023-05-20T12:28:24;19.90;99.90
20384;DHT22;46458;50.966;7.002;2023-05-20T12:30:58;19.90;99.90
20384;DHT22;46458;50.966;7.002;2023-05-20T12:33:27;20.00;99.90
20384;DHT22;46458;50.966;7.002;2023-05-20T12:35:59;20.00;99.90
20384;DHT22;46458;50.966;7.002;2023-05-20T12:38:27;20.00;99.90
20384;DHT22;46458;50.966;7.002;2023-05-20T12:40:56;20.10;99.90
20384;DHT22;46458;50.966;7.002;2023-05-20T12:43:25;20.10;99.90
20384;DHT22;46458;50.966;7.002;2023-05-20T12:45:57;20.10;99.90
20384;DHT22;46458;50.966;7.002;2023-05-20T12:48:28;20.10;99.90
20384;DHT22;46458;50.966;7.002;2023-05-20T12:50:57;20.10;99.90
20384;DHT22;46458;50.966;7.002;2023-05-20T12:53:26;20.10;99.90
20384;DHT22;46458;50.966;7.002;2023-05-20T12:55:55;20.10;99.90
20384;DHT22;46458;50.966;7.002;2023-05-20T12:58:24;20.20;99.90
20384;DHT22;46458;50.966;7.002;2023-05-20T13:00:53;20.30;99.90
20384;DHT22;46458;50.966;7.002;2023-05-20T13:03:24;20.40;99.90
20384;DHT22;46458;50.966;7.002;2023-05-20T13:05:53;20.30;99.90
20384;DHT22;46458;50.966;7.002;2023-05-20T13:08:21;20.30;99.90
20384;DHT22;46458;50.966;7.002;2023-05-20T13:10:52;20.30;99.90
20384;DHT22;46458;50.966;7.002;2023-05-20T13:13:22;20.30;99.90
20384;DHT22;46458;50.966;7.002;2023-05-20T13:15:51;20.40;99.90
20384;DHT22;46458;50.966;7.002;2023-05-20T13:18:20;20.50;99.90
20384;DHT22;46458;50.966;7.002;2023-05-20T13:20:51;20.50;99.90
20384;DHT22;46458;50.966;7.002;2023-05-20T13:23:20;20.50;99.90
20384;DHT22;46458;50.966;7.002;2023-05-20T13:25:49;20.50;99.90
20384;DHT22;46458;50.966;7.002;2023-05-20T13:28:18;20.50;99.90
20384;DHT22;46458;50.966;7.002;2023-05-20T13:30:47;20.40;99.90
20384;DHT22;46458;50.966;7.002;2023-05-20T13:33:18;20.40;99.90
20384;DHT22;46458;50.966;7.002;2023-05-20T13:35:53;20.40;99.90
20384;DHT22;46458;50.966;7.002;2023-05-20T13:38:22;20.30;99.90
20384;DHT22;46458;50.966;7.002;2023-05-20T13:40:51;20.30;99.90
20384;DHT22;46458;50.966;7.002;2023-05-20T13:43:23;20.30;99.90
20384;DHT22;46458;50.966;7.002;2023-05-20T13:45:53;20.40;99.90
20384;DHT22;46458;50.966;7.002;2023-05-20T13:48:22;20.40;99.90
20384;DHT22;46458;50.966;7.002;2023-05-20T13:50:57;20.40;99.90
20384;DHT22;46458;50.966;7.002;2023-05-20T13:53:26;20.30;99.90
20384;DHT22;46458;50.966;7.002;2023-05-20T13:55:55;20.20;99.90
20384;DHT22;46458;50.966;7.002;2023-05-20T13:58:24;20.30;99.90
20384;DHT22;46458;50.966;7.002;2023-05-20T14:00:57;20.30;99.90
20384;DHT22;46458;50.966;7.002;2023-05-20T14:03:26;20.50;99.90
20384;DHT22;46458;50.966;7.002;2023-05-20T14:05:57;20.70;99.90
20384;DHT22;46458;50.966;7.002;2023-05-20T14:08:26;20.80;99.90
20384;DHT22;46458;50.966;7.002;2023-05-20T14:10:55;20.80;99.90
20384;DHT22;46458;50.966;7.002;2023-05-20T14:13:24;20.70;99.90
20384;DHT22;46458;50.966;7.002;2023-05-20T14:15:53;20.70;99.90
20384;DHT22;46458;50.966;7.002;2023-05-20T14:18:22;20.60;99.90
20384;DHT22;46458;50.966;7.002;2023-05-20T14:20:51;20.50;99.90
20384;DHT22;46458;50.966;7.002;2023-05-20T14:23:23;20.50;99.90
20384;DHT22;46458;50.966;7.002;2023-05-20T14:25:52;20.40;99.90
20384;DHT22;46458;50.966;7.002;2023-05-20T14:28:21;20.40;99.90
20384;DHT22;46458;50.966;7.002;2023-05-20T14:30:50;20.20;99.90
20384;DHT22;46458;50.966;7.002;2023-05-20T14:33:19;20.20;99.90
20384;DHT22;46458;50.966;7.002;2023-05-20T14:35:48;20.10;99.90
20384;DHT22;46458;50.966;7.002;2023-05-20T14:38:16;20.10;99.90
20384;DHT22;46458;50.966;7.002;2023-05-20T14:40:48;20.10;99.90
20384;DHT22;46458;50.966;7.002;2023-05-20T14:43:20;20.00;99.90
20384;DHT22;46458;50.966;7.002;2023-05-20T14:45:48;20.00;99.90
20384;DHT22;46458;50.966;7.002;2023-05-20T14:48:17;20.00;99.90
20384;DHT22;46458;50.966;7.002;2023-05-20T14:50:46;19.90;99.90
20384;DHT22;46458;50.966;7.002;2023-05-20T14:53:15;19.90;99.90
20384;DHT22;46458;50.966;7.002;2023-05-20T14:55:44;19.90;99.90
20384;DHT22;46458;50.966;7.002;2023-05-20T14:58:18;19.90;99.90
20384;DHT22;46458;50.966;7.002;2023-05-20T15:00:47;19.80;99.90
20384;DHT22;46458;50.966;7.002;2023-05-20T15:03:16;19.80;99.90
20384;DHT22;46458;50.966;7.002;2023-05-20T15:05:45;19.70;99.90
20384;DHT22;46458;50.966;7.002;2023-05-20T15:08:14;19.80;99.90
20384;DHT22;46458;50.966;7.002;2023-05-20T15:10:42;19.70;99.90
20384;DHT22;46458;50.966;7.002;2023-05-20T15:13:12;19.70;99.90
20384;DHT22;46458;50.966;7.002;2023-05-20T15:15:46;19.70;99.90
20384;DHT22;46458;50.966;7.002;2023-05-20T15:18:15;19.70;99.90
20384;DHT22;46458;50.966;7.002;2023-05-20T15:20:44;19.70;99.90
20384;DHT22;46458;50.966;7.002;2023-05-20T15:23:15;19.70;99.90
20384;DHT22;46458;50.966;7.002;2023-05-20T15:25:44;19.70;99.90
20384;DHT22;46458;50.966;7.002;2023-05-20T15:28:15;19.70;99.90
20384;DHT22;46458;50.966;7.002;2023-05-20T15:30:52;19.70;99.90
20384;DHT22;46458;50.966;7.002;2023-05-20T15:33:21;19.60;99.90
20384;DHT22;46458;50.966;7.002;2023-05-20T15:35:50;19.60;99.90
20384;DHT22;46458;50.966;7.002;2023-05-20T15:38:19;19.60;99.90
20384;DHT22;46458;50.966;7.002;2023-05-20T15:40:48;19.60;99.90
20384;DHT22;46458;50.966;7.002;2023-05-20T15:43:17;19.60;99.90
20384;DHT22;46458;50.966;7.002;2023-05-20T15:45:49;19.60;99.90
20384;DHT22;46458;50.966;7.002;2023-05-20T15:48:18;19.60;99.90
20384;DHT22;46458;50.966;7.002;2023-05-20T15:50:48;19.60;99.90
20384;DHT22;46458;50.966;7.002;2023-05-20T15:53:17;19.50;99.90